Terminal Aerodrome Forecast
Issued by NWS

Home | Current Version | Previous Version | Text Only | Print | Product List | Glossary On
Versions: 1 2 3 4 5 6 7 8 9 10 11 12 13 14 15 16 17 18 19 20 21 22 23 24 25
000
FTUS44 KOUN 220526
TAFWWR
TAF
KWWR 220526Z 2206/2306 10007KT P6SM SCT020 OVC040
      TEMPO 2206/2208 5SM -RA BKN020 OVC040
     FM220800 11006KT P6SM OVC020
      TEMPO 2210/2212 3SM TSRA BR OVC010CB
     FM221200 13008KT 4SM RA BR OVC010
     FM222000 17014KT P6SM OVC010=

USA.gov is the U.S. government's official web portal to all federal, state and local government web resources and services.